Creelman (971, 635, 6917) Station Data

Red Flag Warning: No
Fire Weather Zone: 250
SDGE Region: Ramona
Lat/Lon: 33.016/-116.871

Observations

Time Wind Speed/Gust Temp(F) RH Fuel Moist Fuel Temp(F) Dewpt(F) Tmax(F) Tmin(F) Accum Precip 10-min Precip SL Press(mb)
5/24 8:30am 258 2 G 6 62° 100% - - 62° 83.1° 31° - - -
5/24 8:20am 72 5 G 8 59° 100% - - 60° 83.1° 31° - - -
5/24 8:10am 143 1 G 5 59° 100% - - 59° 83.1° 31° - - -
5/24 8:00am 342 1 G 5 61° 100% - - 61° 83.1° 31° - - -
5/24 7:50am 0 2 G 4 58° 100% - - 58° 83.1° 31° - - -
5/24 7:40am 85 3 G 5 54° 100% - - 54° 83.1° 31° - - -
5/24 7:30am 75 4 G 7 54° 100% - - 54° 83.1° 31° - - -
5/24 7:20am 95 3 G 5 57° 100% - - 57° 83.1° 31° - - -
5/24 7:10am 153 2 G 4 53° 100% - - 53° 83.1° 31° - - -
5/24 7:00am 219 5 G 9 53° 100% - - 53° 83.1° 31° - - -
5/24 6:50am 103 3 G 7 54° 100% - - 54° 83.1° 31° - - -
5/24 6:40am 174 1 G 5 54° 100% - - 55° 83.1° 31° - - -
5/24 6:30am 232 4 G 5 52° 100% - - 52° 83.1° 31° - - -
5/24 6:20am 244 0 G 3 52° 100% - - 52° 83.1° 31.8° - - -
5/24 6:10am 97 0 G 1 49° 100% - - 49° 83.1° 31.8° - - -
5/24 6:00am 86 2 G 3 49° 100% - - 49° 83.1° 31.8° - - -
5/24 5:50am 109 0 G 3 51° 100% - - 51° 83.1° 31.8° - - -
5/24 5:40am 0 0 G 0 50° 100% - - 50° 83.1° 31.8° - - -
5/24 5:30am 101 0 G 1 52° 100% - - 52° 83.1° 31.8° - - -
5/24 5:20am 133 1 G 1 52° 100% - - 52° 83.1° 31.8° - - -
5/24 5:10am 42 0 G 1 51° 100% - - 51° 83.1° 31.8° - - -
5/24 5:00am 84 2 G 2 51° 100% - - 51° 83.1° 36.1° - - -
5/24 4:50am 71 1 G 3 52° 100% - - 52° 83.1° 36.1° - - -
5/24 4:40am 0 0 G 0 51° 100% - - 51° 83.1° 36.1° - - -
5/24 4:30am 0 0 G 0 53° 100% - - 53° 83.1° 36.1° - - -
5/24 4:20am 0 0 G 0 54° 100% - - 54° 83.1° 36.1° - - -
5/24 4:10am 215 2 G 3 53° 100% - - 53° 83.1° 36.1° - - -
5/24 4:00am 234 0 G 2 53° 100% - - 53° 83.1° 36.1° - - -
5/24 3:50am 46 1 G 2 52° 100% - - 52° 83.1° 36.1° - - -
5/24 3:40am 118 1 G 2 53° 100% - - 54° 83.1° 39.3° - - -
5/24 3:30am 119 1 G 3 53° 100% - - 53° 83.1° 39.3° - - -
5/24 3:20am 0 0 G 0 54° 100% - - 54° 83.1° 39.3° - - -
5/24 3:10am 116 0 G 0 54° 100% - - 54° 83.1° 39.5° - - -
5/24 3:00am 108 1 G 2 54° 100% - - 54° 83.1° 39.5° - - -
5/24 2:50am 75 2 G 3 55° 100% - - 55° 83.1° 42° - - -
5/24 2:40am 58 2 G 3 55° 100% - - 55° 83.1° 42° - - -
5/24 2:30am 0 0 G 0 55° 100% - - 55° 83.1° 42.8° - - -
5/24 2:20am 0 0 G 0 55° 100% - - 55° 83.1° 42.8° - - -
5/24 2:10am 0 0 G 0 55° 100% - - 55° 83.1° 42.8° - - -
5/24 2:00am 0 0 G 0 56° 100% - - 56° 83.1° 42.8° - - -
5/24 1:50am 143 0 G 1 56° 100% - - 56° 83.1° 42.8° - - -
5/24 1:40am 196 1 G 2 56° 100% - - 56° 83.1° 42.8° - - -
5/24 1:30am 231 2 G 3 57° 100% - - 57° 83.1° 44.5° - - -
5/24 1:20am 243 1 G 3 57° 100% - - 57° 83.1° 44.9° - - -
5/24 1:10am 218 2 G 3 58° 100% - - 58° 83.1° 46.3° - - -
5/24 1:00am 66 2 G 3 58° 100% - - 58° 83.1° 46.3° - - -
5/24 12:50am 58 2 G 3 59° 100% - - 59° 83.1° 47.7° - - -
5/24 12:40am 87 3 G 5 60° 100% - - 60° 76.1° 47.7° - - -
5/24 12:30am 94 2 G 5 60° 100% - - 60° 72.3° 47.7° - - -
5/24 12:20am 0 0 G 0 59° 100% - - 59° 72.3° 47.7° - - -
5/24 12:10am 0 0 G 0 60° 100% - - 60° 70.1° 49.9° - - -
5/24 12:00am 0 0 G 0 59° 100% - - 59° 91.2° 36.7° - - -
5/23 11:50pm 0 0 G 0 59° 100% - - 59° 91.2° 36.7° - - -
5/23 11:40pm 0 0 G 0 60° 100% - - 60° 91.2° 36.7° - - -
5/23 11:30pm 0 0 G 0 61° 100% - - 61° 91.2° 36.7° - - -
5/23 11:20pm 0 0 G 0 61° 100% - - 61° 91.2° 36.7° - - -
5/23 11:10pm 0 0 G 0 61° 100% - - 61° 91.2° 36.7° - - -
5/23 11:00pm 0 0 G 0 62° 99% - - 62° 91.2° 36.7° - - -
5/23 10:50pm 97 0 G 1 63° 87% - - 59° 91.2° 36.7° - - -
5/23 10:40pm 73 1 G 2 64° 80% - - 58° 91.2° 36.7° - - -
5/23 10:30pm 63 1 G 2 64° 75% - - 57° 91.2° 36.7° - - -
5/23 10:20pm 53 1 G 2 65° 89% - - 61° 91.2° 36.7° - - -
5/23 10:10pm 74 1 G 2 65° 100% - - 65° 91.2° 36.7° - - -
5/23 10:00pm 106 2 G 3 65° 100% - - 65° 91.2° 36.7° - - -
5/23 9:50pm 96 2 G 3 65° 100% - - 65° 91.2° 36.7° - - -
5/23 9:40pm 77 1 G 2 66° 100% - - 66° 91.2° 36.7° - - -
5/23 9:30pm 116 0 G 2 67° 100% - - 67° 91.2° 36.7° - - -
5/23 9:20pm 110 1 G 3 67° 100% - - 67° 91.2° 36.7° - - -
5/23 9:10pm 229 1 G 2 67° 100% - - 67° 91.2° 36.7° - - -
5/23 9:00pm 233 2 G 3 68° 100% - - 68° 91.2° 36.7° - - -
5/23 8:50pm 225 3 G 4 68° 100% - - 68° 91.2° 36.7° - - -
5/23 8:40pm 236 3 G 4 69° 100% - - 69° 91.2° 36.7° - - -
5/23 8:30pm 238 5 G 5 70° 99% - - 69° 91.2° 36.7° - - -
5/23 8:20pm 236 3 G 4 71° 84% - - 66° 91.2° 36.7° - - -
5/23 8:10pm 243 2 G 2 73° 70% - - 62° 91.2° 36.7° - - -
5/23 8:00pm 247 3 G 4 73° 62% - - 60° 91.2° 36.7° - - -
5/23 7:50pm 317 2 G 4 74° 57% - - 58° 91.2° 36.7° - - -
5/23 7:40pm 257 2 G 4 74° 53% - - 56° 91.2° 36.7° - - -
5/23 7:30pm 303 5 G 7 76° 48% - - 55° 91.2° 36.7° - - -
5/23 7:20pm 315 6 G 9 77° 45% - - 54° 91.2° 36.7° - - -
5/23 7:10pm 303 5 G 8 78° 42% - - 53° 91.2° 36.7° - - -
5/23 7:00pm 293 8 G 11 79° 39% - - 52° 91.2° 36.7° - - -
5/23 6:50pm 290 8 G 12 80° 35% - - 49° 91.2° 36.7° - - -
5/23 6:40pm 279 9 G 12 80° 33% - - 49° 91.2° 36.7° - - -
5/23 6:30pm 276 9 G 12 81° 34% - - 50° 91.2° 36.7° - - -
5/23 6:20pm 287 9 G 12 83° 31% - - 49° 91.2° 36.7° - - -
5/23 6:10pm 284 8 G 11 83° 29% - - 47° 91.2° 36.7° - - -
5/23 6:00pm 282 8 G 11 83° 29% - - 48° 91.2° 36.7° - - -
5/23 5:50pm 282 8 G 12 84° 29% - - 48° 91.2° 36.7° - - -
5/23 5:40pm 277 7 G 11 84° 28% - - 47° 91.2° 36.7° - - -
5/23 5:30pm 272 7 G 10 84° 27% - - 47° 91.2° 36.7° - - -
5/23 5:20pm 297 5 G 8 85° 25% - - 45° 91.2° 36.7° - - -
5/23 5:10pm 280 7 G 10 84° 24% - - 43° 91.2° 36.7° - - -
5/23 5:00pm 287 7 G 10 84° 23% - - 42° 91.2° 36.7° - - -
5/23 4:50pm 278 7 G 11 84° 23% - - 42° 91.2° 36.7° - - -
5/23 4:40pm 278 7 G 10 84° 23% - - 43° 91.2° 36.7° - - -
5/23 4:30pm 294 5 G 9 84° 23% - - 42° 91.2° 36.7° - - -
5/23 4:20pm 280 5 G 10 84° 27% - - 47° 91.2° 36.7° - - -
5/23 4:10pm 277 4 G 9 83° 28% - - 47° 91.2° 36.7° - - -
5/23 4:00pm 280 7 G 10 82° 29% - - 47° 91.2° 36.7° - - -
5/23 3:50pm 286 9 G 13 82° 31% - - 48° 91.2° 36.7° - - -
5/23 3:40pm 302 9 G 14 81° 33% - - 50° 91.2° 36.7° - - -
5/23 3:30pm 302 10 G 15 81° 37% - - 52° 91.2° 36.7° - - -
5/23 3:20pm 296 10 G 15 81° 36% - - 52° 91.2° 36.7° - - -
5/23 3:10pm 295 9 G 12 82° 33% - - 50° 91.2° 36.7° - - -
5/23 3:00pm 306 9 G 14 82° 38% - - 54° 91.2° 36.7° - - -
5/23 2:50pm 311 9 G 13 81° 45% - - 58° 91.2° 36.7° - - -
5/23 2:40pm 303 10 G 15 81° 48% - - 59° 91.2° 36.7° - - -
5/23 2:30pm 296 10 G 14 80° 56% - - 63° 91.2° 36.7° - - -
5/23 2:20pm 285 10 G 13 79° 59% - - 64° 91.2° 36.7° - - -
5/23 2:10pm 284 10 G 14 79° 57% - - 63° 91.2° 36.7° - - -
5/23 2:00pm 301 9 G 13 80° 55% - - 62° 91.2° 36.7° - - -
5/23 1:50pm 298 10 G 15 80° 54% - - 62° 91.2° 36.7° - - -
5/23 1:40pm 288 10 G 13 80° 51% - - 61° 91.2° 36.7° - - -
5/23 1:30pm 292 9 G 14 80° 49% - - 59° 91.2° 36.7° - - -
5/23 1:20pm 296 10 G 14 80° 47% - - 59° 91.2° 36.7° - - -
5/23 1:10pm 298 11 G 15 81° 44% - - 57° 91.2° 36.7° - - -
5/23 1:00pm 293 10 G 14 82° 40% - - 55° 91.2° 36.7° - - -
5/23 12:50pm 290 11 G 15 82° 39% - - 54° 91.2° 36.7° - - -
5/23 12:40pm 294 11 G 16 82° 36% - - 52° 91.2° 36.7° - - -
5/23 12:30pm 293 11 G 18 84° 33% - - 51° 91.2° 36.7° - - -
5/23 12:20pm 265 9 G 15 86° 29% - - 50° 91.2° 36.7° - - -
5/23 12:10pm 277 8 G 12 89° 23% - - 46° 91.2° 36.7° - - -
5/23 12:00pm 282 7 G 13 88° 22% - - 45° 91.2° 36.7° - - -
5/23 11:50am 262 9 G 18 89° 22% - - 46° 91.2° 36.7° - - -
5/23 11:40am 233 7 G 12 89° 23% - - 46° 91.2° 36.7° - - -
5/23 11:30am 243 8 G 13 90° 17% - - 40° 91.2° 36.7° - - -
5/23 11:20am 225 5 G 10 90° 15% - - 36° 90.6° 36.7° - - -
5/23 11:10am 227 4 G 9 89° 16% - - 37° 89.8° 36.7° - - -
5/23 11:00am 221 4 G 7 88° 17% - - 38° 88.9° 36.7° - - -
5/23 10:50am 309 3 G 7 88° 17% - - 38° 88.5° 36.7° - - -
5/23 10:40am 224 2 G 6 87° 19% - - 39° 87.8° 36.7° - - -
5/23 10:30am 232 2 G 6 87° 18% - - 39° 87.5° 36.7° - - -
5/23 10:20am 213 3 G 6 85° 19% - - 39° 86° 36.7° - - -
5/23 10:10am 229 3 G 6 85° 20% - - 39° 85.9° 36.7° - - -
5/23 10:00am 305 2 G 4 85° 20% - - 39° 85.9° 36.7° - - -
5/23 9:50am 183 2 G 4 84° 20% - - 39° 84.8° 36.7° - - -
5/23 9:40am 126 1 G 2 84° 22% - - 41° 84.8° 36.7° - - -
5/23 9:30am 106 1 G 4 82° 29% - - 46° 82.7° 36.7° - - -
5/23 9:20am 222 1 G 4 80° 44% - - 56° 80.8° 36.7° - - -
5/23 9:10am 222 1 G 3 79° 66% - - 67° 80.1° 36.7° - - -
5/23 9:00am 81 1 G 3 78° 97% - - 77° 80.1° 36.7° - - -
5/23 8:50am 56 1 G 2 76° 100% - - 76° 80.1° 36.7° - - -
5/23 8:40am 66 1 G 3 75° 100% - - 75° 80.1° 36.7° - - -
5/23 8:30am 86 1 G 3 72° 100% - - 72° 80.1° 36.7° - - -
5/23 8:20am 38 1 G 2 71° 100% - - 71° 80.1° 36.7° - - -
5/23 8:10am 33 0 G 1 69° 97% - - 68° 80.1° 36.7° - - -
5/23 8:00am 62 0 G 2 68° 74% - - 58° 80.1° 36.7° - - -
5/23 7:50am 0 0 G 0 65° 100% - - 65° 80.1° 36.7° - - -
5/23 7:40am 236 0 G 0 64° 100% - - 64° 80.1° 36.7° - - -
5/23 7:30am 219 2 G 3 63° 100% - - 63° 80.1° 36.7° - - -
5/23 7:20am 245 1 G 2 62° 100% - - 62° 80.1° 36.7° - - -
5/23 7:10am 270 0 G 2 63° 100% - - 63° 80.1° 36.7° - - -
5/23 7:00am 0 0 G 0 65° 100% - - 65° 80.1° 36.7° - - -
5/23 6:50am 95 0 G 0 60° 100% - - 60° 79.7° 36.7° - - -
5/23 6:40am 72 1 G 2 58° 100% - - 58° 79.7° 36.7° - - -
5/23 6:30am 95 2 G 3 56° 100% - - 56° 78° 36.7° - - -
5/23 6:20am 91 0 G 2 54° 100% - - 54° 78° 36.7° - - -
5/23 6:10am 76 1 G 2 54° 100% - - 54° 78° 36.7° - - -
5/23 6:00am 88 2 G 2 53° 100% - - 53° 78° 36.7° - - -